Terminal Aerodrome Forecast
Issued by NWS Wakefield, VA

Home | Current Version | Previous Version | Text Only | Print | Product List | Glossary On
Versions: 1 2 3 4 5 6 7 8 9 10 11 12 13 14 15 16
000
FTUS41 KAKQ 200500
TAFSBY
TAF
KSBY 200539Z 2006/2106 00000KT P6SM SCT100
     FM200800 00000KT 4SM BR SCT010 SCT100
     FM201330 09007KT P6SM SCT100=

USA.gov is the U.S. government's official web portal to all federal, state and local government web resources and services.